Eikyu Maru No.88 — JM6714 — position and weather

sailwx.info

Track history (hours):
 
Tides and Currents Weather Stations Pressure Air Temp Water Temp Dewpoint Dewpoint Depression Visibility Wind Speed Wind Dir Waves Ship Positions

Eikyu Maru No.88

Last reported at 2017-Sep-20 12:13 UTC. Time now 2017-Sep-21 03:16 UTC.
Position N 34°37' E 135°23'.

Length 75 m.

Type: Cargo ship. MMSI: 431602099.

Date/timePositionNaut miles runAvg speedWind from/ knotsBaromVisibWave heightAir tempDewpointWater temp
2017-Sep-20 12:13N 34°37' E 135°23'0 0.1
2017-Sep-20 11:55N 34°37' E 135°23'0 0.0
2017-Sep-20 10:43N 34°37' E 135°23'0 0.0
2017-Sep-20 10:25N 34°37' E 135°23'0 0.0
2017-Sep-20 09:55N 34°37' E 135°23'1 1.2
2017-Sep-20 09:29N 34°37' E 135°22'208 6.7
2017-Sep-19 02:17N 35°04' E 139°34'4 9.7
2017-Sep-19 01:54N 35°05' E 139°38'510.4
2017-Sep-19 01:28N 35°08' E 139°43'511.0
2017-Sep-19 01:00N 35°12' E 139°46'610.7
2017-Sep-19 00:27N 35°18' E 139°44'510.5
2017-Sep-19 00:00N 35°22' E 139°42'510.7
2017-Sep-18 23:30N 35°26' E 139°46'810.1
2017-Sep-18 22:41N 35°34' E 139°51'210.5
2017-Sep-18 22:27N 35°36' E 139°50'  
2017-Sep-14 02:04N 35°23' E 139°49'111.7
2017-Sep-14 02:00N 35°23' E 139°48'610.0
2017-Sep-14 01:27N 35°18' E 139°44'611.2
2017-Sep-14 00:57N 35°13' E 139°47'511.1
2017-Sep-14 00:30N 35°08' E 139°46'510.4
2017-Sep-14 00:00N 35°05' E 139°41'  
Track history (hours):
 
Tides and Currents Weather Stations Pressure Air Temp Water Temp Dewpoint Dewpoint Depression Visibility Wind Speed Wind Dir Waves Ship Positions

Eikyu Maru No.88

Last reported at 2017-Sep-20 12:13 UTC. Time now 2017-Sep-21 03:16 UTC.
Position N 34°37' E 135°23'.

Length 75 m.

Type: Cargo ship. MMSI: 431602099.

Date/timePositionNaut miles runAvg speedWind from/ knotsBaromVisibWave heightAir tempDewpointWater temp
2017-Sep-20 12:13N 34°37' E 135°23'0 0.1
2017-Sep-20 11:55N 34°37' E 135°23'0 0.0
2017-Sep-20 10:43N 34°37' E 135°23'0 0.0
2017-Sep-20 10:25N 34°37' E 135°23'0 0.0
2017-Sep-20 09:55N 34°37' E 135°23'1 1.2
2017-Sep-20 09:29N 34°37' E 135°22'208 6.7
2017-Sep-19 02:17N 35°04' E 139°34'4 9.7
2017-Sep-19 01:54N 35°05' E 139°38'510.4
2017-Sep-19 01:28N 35°08' E 139°43'511.0
2017-Sep-19 01:00N 35°12' E 139°46'610.7
2017-Sep-19 00:27N 35°18' E 139°44'510.5
2017-Sep-19 00:00N 35°22' E 139°42'510.7
2017-Sep-18 23:30N 35°26' E 139°46'810.1
2017-Sep-18 22:41N 35°34' E 139°51'210.5
2017-Sep-18 22:27N 35°36' E 139°50'  
2017-Sep-14 02:04N 35°23' E 139°49'111.7
2017-Sep-14 02:00N 35°23' E 139°48'610.0
2017-Sep-14 01:27N 35°18' E 139°44'611.2
2017-Sep-14 00:57N 35°13' E 139°47'511.1
2017-Sep-14 00:30N 35°08' E 139°46'510.4
2017-Sep-14 00:00N 35°05' E 139°41'  

Dump ship's entire track history